Time;durP1;ratioP1;P1;durP2;ratioP2;P2;SDS_P1;SDS_P2;PMS_P1;PMS_P2;Temp;Humidity;BMP_temperature;BMP_pressure;BME280_temperature;BME280_humidity;BME280_pressure;Samples;Min_cycle;Max_cycle;Signal;HPM_P1;HPM_P2
2021/06/13 00:00:37;;;;;;;1.98;0.70;;;13.70;66.40;;;;;;5037047;28;20483;-79
2021/06/13 00:03:03;;;;;;;1.90;0.93;;;13.70;66.50;;;;;;5019522;28;20483;-79
2021/06/13 00:05:29;;;;;;;1.65;0.70;;;13.60;66.60;;;;;;5018197;28;20030;-80
2021/06/13 00:07:54;;;;;;;1.27;0.80;;;13.60;66.70;;;;;;5036205;28;20557;-79
2021/06/13 00:10:20;;;;;;;0.75;0.60;;;13.60;66.80;;;;;;5018840;28;20125;-80
2021/06/13 00:12:47;;;;;;;0.98;0.60;;;13.60;66.80;;;;;;5019597;28;20033;-79
2021/06/13 00:15:17;;;;;;;2.35;1.00;;;13.50;66.90;;;;;;5042594;28;20044;-80
2021/06/13 00:17:42;;;;;;;0.85;0.70;;;13.50;67.00;;;;;;5037690;28;20037;-79
2021/06/13 00:20:12;;;;;;;1.58;0.93;;;13.50;67.10;;;;;;5036948;28;20034;-80
2021/06/13 00:22:38;;;;;;;1.17;0.80;;;13.60;67.20;;;;;;5020554;28;20046;-79
2021/06/13 00:25:05;;;;;;;1.35;0.80;;;13.50;67.30;;;;;;5034320;28;20056;-80
2021/06/13 00:27:31;;;;;;;1.40;0.80;;;13.40;67.30;;;;;;5037358;28;20155;-80
2021/06/13 00:29:57;;;;;;;0.85;0.60;;;13.40;67.40;;;;;;5018643;28;20034;-79
2021/06/13 00:32:23;;;;;;;1.00;0.70;;;13.40;67.40;;;;;;5036424;28;20061;-79
2021/06/13 00:34:48;;;;;;;0.98;0.60;;;13.40;67.50;;;;;;5036506;28;20037;-79
2021/06/13 00:37:14;;;;;;;0.60;0.60;;;13.40;67.60;;;;;;5037139;28;20118;-79
2021/06/13 00:39:40;;;;;;;1.10;0.70;;;13.30;67.60;;;;;;5023168;28;20041;-80
2021/06/13 00:42:06;;;;;;;0.82;0.73;;;13.30;67.60;;;;;;5037778;28;20038;-80
2021/06/13 00:44:31;;;;;;;0.75;0.63;;;13.30;67.70;;;;;;5023657;28;20100;-80
2021/06/13 00:46:58;;;;;;;1.20;0.60;;;13.30;67.70;;;;;;5039679;28;20407;-79
2021/06/13 00:49:24;;;;;;;0.77;0.70;;;13.30;67.70;;;;;;5037257;28;20403;-79
2021/06/13 00:51:51;;;;;;;1.30;0.80;;;13.30;67.80;;;;;;5039690;28;20033;-79
2021/06/13 00:54:17;;;;;;;0.90;0.70;;;13.20;67.90;;;;;;5022306;28;20372;-80
2021/06/13 00:56:42;;;;;;;1.27;0.82;;;13.30;68.00;;;;;;5041304;28;20041;-79
2021/06/13 00:59:10;;;;;;;1.45;0.80;;;13.20;68.00;;;;;;5023911;28;20041;-80
2021/06/13 01:01:36;;;;;;;3.97;0.80;;;13.20;68.10;;;;;;5040845;28;20105;-80
2021/06/13 01:04:02;;;;;;;0.75;0.60;;;13.20;68.10;;;;;;5026224;28;20044;-80
2021/06/13 01:06:36;;;;;;;0.63;0.63;;;13.20;68.20;;;;;;5024665;28;20053;-79
2021/06/13 01:09:06;;;;;;;1.95;0.90;;;13.20;68.20;;;;;;5024631;28;20045;-80
2021/06/13 01:11:46;;;;;;;1.10;0.70;;;13.10;68.20;;;;;;5041240;28;20041;-79
2021/06/13 01:14:22;;;;;;;0.85;0.50;;;13.20;68.40;;;;;;5023649;28;20045;-80
2021/06/13 01:17:11;;;;;;;1.35;0.80;;;13.10;68.40;;;;;;5025356;28;20038;-79
2021/06/13 01:19:49;;;;;;;0.95;0.68;;;13.20;68.50;;;;;;5027407;28;20110;-80
2021/06/13 01:22:32;;;;;;;0.60;0.60;;;13.10;68.50;;;;;;5028464;28;20038;-79
2021/06/13 01:25:07;;;;;;;0.70;0.70;;;13.10;68.60;;;;;;5043053;28;20063;-79
2021/06/13 01:28:01;;;;;;;0.88;0.55;;;13.10;68.70;;;;;;5022270;28;20072;-79
2021/06/13 01:30:31;;;;;;;0.98;0.68;;;13.10;68.70;;;;;;5021944;28;20476;-80
2021/06/13 01:33:02;;;;;;;0.73;0.60;;;13.00;68.70;;;;;;5044431;28;20025;-79
2021/06/13 01:35:29;;;;;;;2.23;0.70;;;13.00;68.80;;;;;;5027019;28;20037;-79
2021/06/13 01:37:56;;;;;;;1.58;0.40;;;13.00;68.90;;;;;;5027755;28;20052;-79
2021/06/13 01:40:28;;;;;;;1.15;0.90;;;12.90;69.00;;;;;;5047454;28;20038;-79
2021/06/13 01:42:57;;;;;;;1.58;0.93;;;12.90;69.10;;;;;;5027144;28;20045;-79
2021/06/13 01:45:26;;;;;;;1.13;0.80;;;12.90;69.10;;;;;;5045088;28;20053;-80
2021/06/13 01:47:53;;;;;;;1.13;0.82;;;12.80;69.10;;;;;;5047054;28;20041;-79
2021/06/13 01:50:22;;;;;;;1.92;0.93;;;12.80;69.20;;;;;;5045764;28;20095;-79
2021/06/13 01:52:49;;;;;;;0.68;0.65;;;12.80;69.30;;;;;;5026077;28;20057;-80
2021/06/13 01:55:19;;;;;;;1.13;0.70;;;12.80;69.40;;;;;;5043255;28;20076;-79
2021/06/13 01:57:46;;;;;;;1.60;0.90;;;12.80;69.40;;;;;;5026119;28;20514;-80
2021/06/13 02:00:13;;;;;;;1.23;0.70;;;12.80;69.50;;;;;;5025616;28;20037;-79
2021/06/13 02:02:42;;;;;;;1.02;0.70;;;12.80;69.50;;;;;;5030046;28;20072;-79
2021/06/13 02:05:10;;;;;;;0.50;0.50;;;12.70;69.50;;;;;;5027287;28;20045;-80
2021/06/13 02:07:38;;;;;;;1.58;0.90;;;12.70;69.60;;;;;;5025582;28;20064;-79
2021/06/13 02:10:06;;;;;;;0.68;0.52;;;12.70;69.60;;;;;;5045713;28;20436;-80
2021/06/13 02:12:36;;;;;;;1.38;0.50;;;12.70;69.60;;;;;;5030101;28;20042;-80
2021/06/13 02:15:04;;;;;;;0.93;0.65;;;12.70;69.60;;;;;;5043525;28;20041;-80
2021/06/13 02:17:33;;;;;;;0.60;0.60;;;12.70;69.70;;;;;;5025489;28;20072;-80
2021/06/13 02:20:00;;;;;;;1.17;0.68;;;12.80;69.80;;;;;;5044567;28;20033;-80
2021/06/13 02:22:26;;;;;;;1.05;0.63;;;12.60;69.70;;;;;;5027252;28;20073;-79
2021/06/13 02:24:52;;;;;;;1.08;0.60;;;12.70;69.80;;;;;;5047240;28;20046;-80
2021/06/13 02:27:24;;;;;;;0.85;0.60;;;12.70;69.80;;;;;;5048430;28;20045;-81
2021/06/13 02:29:50;;;;;;;0.93;0.80;;;12.70;70.00;;;;;;5047130;28;20076;-80
2021/06/13 02:32:16;;;;;;;1.23;0.77;;;12.70;70.00;;;;;;5030096;28;20046;-81
2021/06/13 02:34:45;;;;;;;1.08;0.75;;;12.60;70.00;;;;;;5044472;28;20046;-80
2021/06/13 02:37:12;;;;;;;1.48;0.82;;;12.60;70.10;;;;;;5022238;28;20037;-79
2021/06/13 02:39:38;;;;;;;1.00;0.60;;;12.60;70.20;;;;;;5007644;28;20046;-79
2021/06/13 02:42:04;;;;;;;1.38;0.70;;;12.60;70.30;;;;;;5023972;28;20053;-80
2021/06/13 02:44:30;;;;;;;1.05;0.68;;;12.60;70.30;;;;;;5023327;28;20042;-80
2021/06/13 02:46:56;;;;;;;1.38;0.75;;;12.50;70.30;;;;;;5042067;28;20052;-80
2021/06/13 02:49:21;;;;;;;1.02;0.80;;;12.50;70.40;;;;;;5025249;28;20042;-80
2021/06/13 02:52:12;;;;;;;1.90;0.80;;;12.50;70.50;;;;;;5020375;28;20045;-80
2021/06/13 02:54:42;;;;;;;1.02;0.70;;;12.50;70.60;;;;;;5039594;28;20068;-80
2021/06/13 02:57:13;;;;;;;1.40;0.80;;;12.40;70.60;;;;;;5027817;28;20041;-80
2021/06/13 02:59:41;;;;;;;;;;;12.40;70.60;;;;;;5040893;28;20042;-79
2021/06/13 03:02:11;;;;;;;1.13;0.70;;;12.40;70.60;;;;;;5027597;28;19914;-79
2021/06/13 03:04:38;;;;;;;0.75;0.60;;;12.30;70.50;;;;;;5022771;28;20049;-79
2021/06/13 03:07:05;;;;;;;0.90;0.63;;;12.40;70.70;;;;;;5023066;28;20057;-79
2021/06/13 03:09:32;;;;;;;1.30;0.80;;;12.30;70.80;;;;;;5025092;28;20042;-79
2021/06/13 03:11:59;;;;;;;0.65;0.60;;;12.40;71.00;;;;;;5037771;28;20041;-79
2021/06/13 03:14:28;;;;;;;0.70;0.50;;;12.30;71.00;;;;;;5022103;28;20045;-80
2021/06/13 03:16:55;;;;;;;1.10;0.63;;;12.30;71.00;;;;;;5021048;28;20081;-80
2021/06/13 03:19:22;;;;;;;0.85;0.60;;;12.30;71.00;;;;;;5027021;28;20052;-80
2021/06/13 03:21:49;;;;;;;0.50;0.50;;;12.30;71.00;;;;;;5038905;28;20088;-79
2021/06/13 03:24:16;;;;;;;1.98;0.73;;;12.30;71.00;;;;;;5022737;28;20072;-80
2021/06/13 03:26:43;;;;;;;1.58;0.70;;;12.30;71.10;;;;;;5024088;28;20049;-80
2021/06/13 03:29:10;;;;;;;1.73;0.88;;;12.20;71.20;;;;;;5031295;28;20046;-80
2021/06/13 03:31:37;;;;;;;0.60;0.60;;;12.30;71.30;;;;;;5047147;28;20046;-80
2021/06/13 03:34:04;;;;;;;1.35;0.70;;;12.20;71.30;;;;;;5022351;28;20042;-79
2021/06/13 03:36:31;;;;;;;0.90;0.50;;;12.30;71.30;;;;;;5041327;28;20064;-79
2021/06/13 03:38:59;;;;;;;0.63;0.60;;;12.20;71.30;;;;;;5026531;28;20105;-80
2021/06/13 03:41:25;;;;;;;0.50;0.50;;;12.30;71.30;;;;;;5029811;28;20388;-80
2021/06/13 03:43:53;;;;;;;0.68;0.60;;;12.10;71.20;;;;;;5025608;28;20060;-80
2021/06/13 03:46:19;;;;;;;0.60;0.50;;;12.20;71.30;;;;;;5039667;28;20049;-79
2021/06/13 03:48:49;;;;;;;0.50;0.50;;;12.20;71.30;;;;;;5027166;28;20047;-79
2021/06/13 03:51:14;;;;;;;0.88;0.55;;;12.30;71.40;;;;;;5045097;28;20045;-79
2021/06/13 03:53:48;;;;;;;0.65;0.50;;;12.30;71.30;;;;;;5029374;28;20039;-80
2021/06/13 03:56:19;;;;;;;0.63;0.50;;;12.30;71.40;;;;;;5048342;28;20048;-80
2021/06/13 03:58:47;;;;;;;0.43;0.43;;;12.30;71.40;;;;;;5045621;28;20054;-80
2021/06/13 04:01:16;;;;;;;0.90;0.68;;;12.30;71.30;;;;;;5032482;28;20021;-80
2021/06/13 04:03:46;;;;;;;0.68;0.68;;;12.30;71.40;;;;;;5053906;28;20049;-80
2021/06/13 04:06:14;;;;;;;0.65;0.50;;;12.30;71.50;;;;;;5053044;28;20056;-80
2021/06/13 04:08:40;;;;;;;1.30;0.68;;;12.30;71.70;;;;;;5050484;28;20041;-80
2021/06/13 04:11:08;;;;;;;1.17;0.70;;;12.30;71.60;;;;;;5030510;28;20026;-80
2021/06/13 04:13:35;;;;;;;1.25;0.60;;;12.30;71.60;;;;;;5032211;28;20042;-80
2021/06/13 04:16:09;;;;;;;2.08;0.73;;;12.30;71.70;;;;;;5029120;28;20026;-80
2021/06/13 04:18:36;;;;;;;1.27;0.60;;;12.30;71.70;;;;;;5016182;28;20050;-79
2021/06/13 04:21:05;;;;;;;1.23;0.60;;;12.30;71.70;;;;;;5034431;28;20050;-79
2021/06/13 04:23:32;;;;;;;0.70;0.63;;;12.40;71.70;;;;;;5032479;28;20062;-79
2021/06/13 04:25:59;;;;;;;0.77;0.70;;;12.30;71.70;;;;;;5033684;28;20057;-79
2021/06/13 04:28:25;;;;;;;1.38;0.82;;;12.40;71.80;;;;;;5015387;28;20053;-80
2021/06/13 04:31:11;;;;;;;0.50;0.50;;;12.50;71.80;;;;;;5017476;28;20029;-80
2021/06/13 04:33:38;;;;;;;1.08;0.60;;;12.40;71.80;;;;;;5047961;28;20037;-80
2021/06/13 04:36:04;;;;;;;1.20;0.80;;;12.40;71.70;;;;;;5032983;28;20102;-79
2021/06/13 04:38:30;;;;;;;0.60;0.60;;;12.50;71.80;;;;;;5033917;28;20022;-79
2021/06/13 04:40:56;;;;;;;1.45;0.52;;;12.50;71.80;;;;;;5032453;28;20084;-80
2021/06/13 04:43:22;;;;;;;0.95;0.60;;;12.50;71.80;;;;;;5050108;28;20033;-80
2021/06/13 04:45:47;;;;;;;0.93;0.70;;;12.60;71.80;;;;;;5030788;28;20048;-80
2021/06/13 04:48:13;;;;;;;0.90;0.60;;;12.60;71.70;;;;;;5034053;28;20061;-80
2021/06/13 04:50:42;;;;;;;0.70;0.52;;;12.60;71.50;;;;;;5053743;28;20009;-81
2021/06/13 04:53:32;;;;;;;0.93;0.70;;;12.60;71.50;;;;;;5050878;28;20054;-82
2021/06/13 04:56:04;;;;;;;0.98;0.70;;;12.70;71.60;;;;;;5034159;28;20033;-80
2021/06/13 04:58:30;;;;;;;0.77;0.50;;;12.90;71.70;;;;;;5035425;28;20114;-80
2021/06/13 05:00:56;;;;;;;0.73;0.63;;;12.90;71.50;;;;;;5037092;28;20029;-80
2021/06/13 05:03:22;;;;;;;0.80;0.60;;;12.90;72.10;;;;;;5036277;28;20021;-80
2021/06/13 05:05:48;;;;;;;0.65;0.50;;;12.90;71.50;;;;;;5053136;28;20045;-81
2021/06/13 05:08:13;;;;;;;0.80;0.80;;;13.00;71.40;;;;;;5039589;28;20048;-80
2021/06/13 05:10:39;;;;;;;1.27;0.90;;;13.00;71.40;;;;;;5037684;28;20048;-80
2021/06/13 05:13:15;;;;;;;0.75;0.55;;;13.10;71.30;;;;;;5039171;28;20061;-80
2021/06/13 05:15:42;;;;;;;1.52;0.70;;;13.10;71.30;;;;;;5055336;28;20506;-80
2021/06/13 05:18:08;;;;;;;0.95;0.60;;;13.20;71.30;;;;;;5057722;28;20065;-81
2021/06/13 05:20:34;;;;;;;0.73;0.70;;;13.20;71.30;;;;;;5039167;28;20112;-81
2021/06/13 05:23:02;;;;;;;1.08;0.82;;;13.20;71.40;;;;;;5051667;28;20120;-82
2021/06/13 05:25:32;;;;;;;1.02;0.70;;;13.40;71.50;;;;;;5015739;28;20037;-82
2021/06/13 05:27:59;;;;;;;0.80;0.70;;;13.50;71.30;;;;;;5032077;28;20042;-83
2021/06/13 05:30:27;;;;;;;1.13;0.73;;;13.60;71.70;;;;;;5017732;28;20364;-82
2021/06/13 05:32:53;;;;;;;1.75;0.70;;;13.80;70.80;;;;;;5035658;28;20057;-83
2021/06/13 05:35:19;;;;;;;1.13;0.57;;;13.90;70.60;;;;;;5020448;28;20383;-83
2021/06/13 05:37:45;;;;;;;1.30;0.80;;;14.10;70.40;;;;;;5018366;28;20041;-82
2021/06/13 05:40:12;;;;;;;2.10;1.00;;;14.10;70.20;;;;;;5040128;28;20038;-82
2021/06/13 05:42:38;;;;;;;0.95;0.55;;;14.30;70.00;;;;;;5030600;28;20034;-81
2021/06/13 05:45:06;;;;;;;1.20;0.60;;;14.40;69.80;;;;;;5024488;28;20045;-81
2021/06/13 05:47:32;;;;;;;1.48;0.65;;;14.50;69.70;;;;;;5034996;28;20045;-82
2021/06/13 05:49:57;;;;;;;1.70;0.80;;;14.60;69.60;;;;;;5017050;28;20041;-80
2021/06/13 05:52:23;;;;;;;0.93;0.70;;;14.80;69.50;;;;;;5016756;28;20115;-80
2021/06/13 05:54:49;;;;;;;1.13;0.65;;;14.80;69.30;;;;;;5016719;28;20443;-80
2021/06/13 05:57:15;;;;;;;0.77;0.47;;;14.90;69.30;;;;;;5033407;28;20053;-79
2021/06/13 05:59:40;;;;;;;2.55;0.70;;;15.00;69.20;;;;;;5033426;28;20460;-79
2021/06/13 06:02:07;;;;;;;1.50;0.82;;;15.10;69.10;;;;;;5016495;28;20363;-79
2021/06/13 06:04:33;;;;;;;1.27;0.85;;;15.10;69.00;;;;;;5014889;28;20038;-80
2021/06/13 06:06:58;;;;;;;1.30;0.60;;;15.20;69.00;;;;;;5016325;28;20056;-80
2021/06/13 06:09:24;;;;;;;2.28;0.90;;;15.40;69.00;;;;;;5032863;28;20037;-80
2021/06/13 06:11:50;;;;;;;2.00;0.90;;;15.40;68.90;;;;;;5016755;28;20124;-80
2021/06/13 06:14:16;;;;;;;1.75;0.70;;;15.40;68.80;;;;;;5016821;28;20479;-80
2021/06/13 06:16:42;;;;;;;1.48;0.73;;;15.60;68.80;;;;;;5032799;28;20503;-80
2021/06/13 06:19:08;;;;;;;0.70;0.52;;;15.60;68.60;;;;;;5015262;28;20484;-80
2021/06/13 06:21:34;;;;;;;1.98;0.90;;;15.70;68.50;;;;;;5030092;28;20038;-80
2021/06/13 06:23:59;;;;;;;1.40;0.75;;;15.80;68.40;;;;;;5014211;28;20118;-80
2021/06/13 06:26:25;;;;;;;1.50;0.63;;;15.90;68.30;;;;;;5012033;28;20050;-79
2021/06/13 06:28:51;;;;;;;1.10;0.70;;;16.00;68.10;;;;;;5011370;28;20480;-80
2021/06/13 06:31:17;;;;;;;1.25;0.80;;;16.10;67.90;;;;;;5014253;28;20761;-79
2021/06/13 06:33:43;;;;;;;0.90;0.57;;;16.20;67.70;;;;;;5014573;28;20129;-80
2021/06/13 06:36:08;;;;;;;2.20;0.75;;;16.30;67.50;;;;;;5011300;28;20122;-80
2021/06/13 06:38:34;;;;;;;2.25;0.93;;;16.40;67.40;;;;;;5014367;28;20046;-80
2021/06/13 06:41:00;;;;;;;1.65;0.80;;;16.60;67.30;;;;;;5008224;28;20088;-80
2021/06/13 06:43:26;;;;;;;0.65;0.65;;;16.60;67.20;;;;;;5031880;28;20065;-80
2021/06/13 06:45:52;;;;;;;1.10;0.60;;;16.70;67.00;;;;;;5032737;28;20080;-79
2021/06/13 06:48:17;;;;;;;0.63;0.60;;;16.70;66.80;;;;;;5015848;28;20069;-80
2021/06/13 06:50:44;;;;;;;0.73;0.70;;;16.90;66.90;;;;;;5015527;28;20529;-81
2021/06/13 06:53:10;;;;;;;0.60;0.50;;;16.90;66.70;;;;;;5032401;28;20423;-81
2021/06/13 06:55:36;;;;;;;2.10;0.82;;;17.10;66.50;;;;;;5033986;28;20039;-81
2021/06/13 06:58:02;;;;;;;1.60;0.80;;;17.30;66.40;;;;;;5032418;28;20823;-80
2021/06/13 07:00:28;;;;;;;1.25;0.85;;;17.40;66.00;;;;;;5033625;28;20049;-81
2021/06/13 07:02:54;;;;;;;1.05;0.63;;;17.40;66.00;;;;;;5033641;28;20037;-80
2021/06/13 07:05:20;;;;;;;1.17;0.75;;;17.60;66.00;;;;;;5034115;28;20040;-80
2021/06/13 07:07:46;;;;;;;1.48;0.68;;;17.70;66.00;;;;;;5015802;28;20384;-80
2021/06/13 07:10:13;;;;;;;1.17;0.70;;;17.90;65.80;;;;;;5015850;28;20045;-80
2021/06/13 07:12:39;;;;;;;0.82;0.70;;;18.00;65.50;;;;;;5033510;28;20076;-80
2021/06/13 07:15:08;;;;;;;0.80;0.80;;;18.00;65.60;;;;;;5015547;28;20036;-80
2021/06/13 07:17:34;;;;;;;0.80;0.73;;;17.70;65.90;;;;;;5015097;28;20549;-80
2021/06/13 07:20:00;;;;;;;1.35;0.73;;;17.50;66.40;;;;;;5033464;28;20049;-77
2021/06/13 07:22:25;;;;;;;1.65;0.70;;;17.30;66.80;;;;;;5034586;28;20038;-78
2021/06/13 07:24:53;;;;;;;1.48;0.70;;;17.20;67.30;;;;;;5032392;28;20037;-77
2021/06/13 07:27:19;;;;;;;0.70;0.70;;;17.10;67.60;;;;;;5033413;28;20065;-80
2021/06/13 07:29:45;;;;;;;1.45;0.65;;;17.30;67.70;;;;;;5021560;28;20037;-80
2021/06/13 07:32:11;;;;;;;0.85;0.60;;;17.30;67.20;;;;;;5035488;28;20059;-78
2021/06/13 07:34:39;;;;;;;1.33;0.90;;;17.40;67.00;;;;;;5015859;28;20034;-81
2021/06/13 07:37:06;;;;;;;2.28;1.00;;;17.80;66.60;;;;;;4999098;28;20522;-80
2021/06/13 07:39:32;;;;;;;1.48;1.00;;;18.00;65.90;;;;;;5014709;28;20053;-77
2021/06/13 07:41:58;;;;;;;1.48;1.00;;;18.00;65.50;;;;;;4984094;28;20471;-79
2021/06/13 07:44:26;;;;;;;1.15;0.88;;;17.90;65.70;;;;;;4963832;28;20096;-80
2021/06/13 07:46:53;;;;;;;1.67;0.93;;;17.80;65.90;;;;;;5015980;28;20140;-79
2021/06/13 07:49:19;;;;;;;1.92;1.10;;;17.60;66.20;;;;;;5000174;28;20057;-80
2021/06/13 07:51:46;;;;;;;1.30;0.80;;;17.60;66.70;;;;;;4981882;28;20057;-79
2021/06/13 07:54:12;;;;;;;1.73;1.00;;;17.50;66.90;;;;;;4978471;28;20077;-77
2021/06/13 07:56:43;;;;;;;1.48;0.90;;;17.60;67.10;;;;;;4963347;28;20180;-78
2021/06/13 07:59:09;;;;;;;1.95;0.95;;;17.80;66.70;;;;;;5014016;28;20084;-82
2021/06/13 08:01:35;;;;;;;1.20;0.80;;;17.90;66.30;;;;;;4952302;28;20043;-79
2021/06/13 08:04:01;;;;;;;1.38;0.90;;;18.20;65.70;;;;;;4988098;28;20022;-78
2021/06/13 08:06:26;;;;;;;0.75;0.65;;;18.70;65.00;;;;;;4989530;28;20051;-78
2021/06/13 08:08:52;;;;;;;1.50;0.80;;;19.20;64.10;;;;;;4940514;28;20493;-79
2021/06/13 08:11:18;;;;;;;0.95;0.73;;;19.50;63.40;;;;;;4985069;28;20041;-77
2021/06/13 08:13:44;;;;;;;1.20;0.90;;;19.50;63.20;;;;;;5013070;28;20551;-78
2021/06/13 08:16:10;;;;;;;0.70;0.63;;;19.80;63.00;;;;;;4986210;28;20042;-76
2021/06/13 08:18:35;;;;;;;1.95;0.90;;;20.00;62.60;;;;;;4998116;28;20059;-76
2021/06/13 08:21:01;;;;;;;0.75;0.75;;;20.10;62.60;;;;;;5003046;28;20074;-75
2021/06/13 08:23:30;;;;;;;1.23;0.80;;;20.10;62.60;;;;;;4999448;28;20440;-77
2021/06/13 08:25:56;;;;;;;0.93;0.80;;;20.20;62.70;;;;;;4993254;28;20053;-79
2021/06/13 08:28:22;;;;;;;1.90;0.80;;;20.40;62.60;;;;;;4992124;28;20057;-77
2021/06/13 08:42:01;;;;;;;1.15;0.77;;;20.60;62.80;;;;;;4885536;29;20044;-86
2021/06/13 08:44:36;;;;;;;0.88;0.80;;;20.70;62.70;;;;;;4895510;29;20105;-87
2021/06/13 08:47:12;;;;;;;2.03;0.90;;;21.00;62.20;;;;;;4896043;29;20045;-87
2021/06/13 08:49:38;;;;;;;1.27;0.80;;;21.00;61.90;;;;;;4845923;29;20044;-86
2021/06/13 08:53:08;;;;;;;0.93;0.73;;;21.00;62.70;;;;;;4846794;29;20094;-81
2021/06/13 08:55:34;;;;;;;1.40;0.80;;;21.20;61.90;;;;;;4874858;29;20041;-78
2021/06/13 08:59:05;;;;;;;1.27;0.90;;;21.40;61.80;;;;;;4845572;29;20108;-85
2021/06/13 09:04:33;;;;;;;1.55;0.90;;;21.90;60.90;;;;;;4841898;29;20076;-83
2021/06/13 09:07:26;;;;;;;3.55;0.90;;;22.20;60.30;;;;;;4829732;29;20202;-83
2021/06/13 09:09:53;;;;;;;1.35;0.93;;;22.00;60.30;;;;;;4836961;29;20053;-83
2021/06/13 09:12:19;;;;;;;1.77;0.90;;;21.60;60.80;;;;;;4841604;29;20050;-80
2021/06/13 09:14:49;;;;;;;1.13;0.85;;;21.60;61.40;;;;;;4857817;29;20056;-80
2021/06/13 09:17:18;;;;;;;0.88;0.75;;;21.60;61.60;;;;;;4862951;29;20442;-80
2021/06/13 09:20:02;;;;;;;1.05;0.80;;;21.70;61.20;;;;;;4884647;29;20485;-81
2021/06/13 09:22:28;;;;;;;1.10;0.82;;;21.90;60.90;;;;;;4916050;29;20048;-80
2021/06/13 09:25:13;;;;;;;1.27;0.80;;;22.10;60.60;;;;;;4900381;29;20044;-80
2021/06/13 09:27:42;;;;;;;1.00;0.90;;;22.20;60.50;;;;;;4900722;29;20228;-81
2021/06/13 09:30:09;;;;;;;1.10;0.73;;;22.30;60.30;;;;;;4899995;29;20063;-80
2021/06/13 09:33:09;;;;;;;0.80;0.70;;;22.30;60.10;;;;;;4900783;29;20060;-82
2021/06/13 09:35:38;;;;;;;0.95;0.75;;;22.30;60.40;;;;;;4914747;29;20063;-80
2021/06/13 09:38:10;;;;;;;1.40;0.70;;;22.20;60.70;;;;;;4911164;29;20155;-80
2021/06/13 09:40:38;;;;;;;1.77;0.90;;;22.20;60.80;;;;;;4942657;28;20026;-80
2021/06/13 09:43:23;;;;;;;1.00;0.90;;;22.30;60.50;;;;;;4977359;28;20389;-81
2021/06/13 09:45:53;;;;;;;0.80;0.75;;;22.30;60.60;;;;;;4977153;28;20042;-82
2021/06/13 09:48:19;;;;;;;1.15;0.90;;;22.40;60.50;;;;;;4977032;28;20042;-80
2021/06/13 09:50:48;;;;;;;1.00;0.82;;;22.70;60.10;;;;;;4976845;28;20042;-81
2021/06/13 09:53:24;;;;;;;1.75;0.90;;;22.70;59.80;;;;;;4980391;28;20431;-79
2021/06/13 09:56:03;;;;;;;0.85;0.63;;;22.80;59.50;;;;;;4980373;28;20057;-81
2021/06/13 09:58:30;;;;;;;0.98;0.90;;;22.80;59.50;;;;;;4980244;28;20128;-81
2021/06/13 10:01:06;;;;;;;2.38;1.08;;;22.80;60.30;;;;;;4980422;28;20104;-80
2021/06/13 10:03:37;;;;;;;0.98;0.77;;;22.80;59.40;;;;;;4980793;28;20090;-80
2021/06/13 10:06:07;;;;;;;1.05;0.80;;;22.90;59.60;;;;;;4980848;28;20056;-81
2021/06/13 10:08:34;;;;;;;0.88;0.70;;;23.20;59.30;;;;;;4980425;28;20069;-81
2021/06/13 10:11:02;;;;;;;1.05;0.88;;;23.30;59.00;;;;;;4980302;28;20430;-81
2021/06/13 10:13:47;;;;;;;1.27;0.80;;;23.40;58.60;;;;;;4980758;28;20064;-81
2021/06/13 10:16:24;;;;;;;1.80;1.10;;;23.50;58.40;;;;;;4980768;28;20050;-82
2021/06/13 10:18:53;;;;;;;1.67;1.10;;;23.70;58.20;;;;;;4979887;28;20040;-80
2021/06/13 10:21:19;;;;;;;0.90;0.90;;;23.80;57.90;;;;;;4980060;28;20084;-80
2021/06/13 10:23:46;;;;;;;6.30;1.17;;;23.70;57.90;;;;;;4980028;28;20123;-79
2021/06/13 10:26:12;;;;;;;1.30;1.00;;;23.70;57.90;;;;;;4980001;28;20038;-79
2021/06/13 10:28:38;;;;;;;1.77;0.95;;;23.60;57.90;;;;;;4979909;28;20224;-81
2021/06/13 10:31:04;;;;;;;1.65;0.93;;;23.50;58.40;;;;;;4980051;28;20547;-80
2021/06/13 10:33:31;;;;;;;2.15;1.00;;;23.40;58.30;;;;;;4978528;28;20041;-79
2021/06/13 10:36:01;;;;;;;1.48;0.90;;;23.40;58.40;;;;;;4979916;28;20387;-81
2021/06/13 10:38:29;;;;;;;1.10;0.90;;;23.50;58.20;;;;;;4980446;28;20034;-80
2021/06/13 10:40:57;;;;;;;0.90;0.80;;;23.50;58.00;;;;;;4980538;28;21300;-80
2021/06/13 10:43:25;;;;;;;2.25;0.88;;;23.70;57.70;;;;;;4979839;28;20073;-81
2021/06/13 10:45:52;;;;;;;1.05;0.90;;;23.70;57.40;;;;;;4979741;28;20038;-80
2021/06/13 10:48:18;;;;;;;1.75;1.02;;;23.70;57.20;;;;;;4980117;28;20065;-81
2021/06/13 10:50:45;;;;;;;0.77;0.73;;;23.90;57.00;;;;;;4978160;28;20069;-79
2021/06/13 10:53:12;;;;;;;2.30;1.00;;;24.00;56.90;;;;;;4979864;28;20959;-80
2021/06/13 10:55:51;;;;;;;2.28;1.10;;;24.00;56.80;;;;;;4995881;28;20038;-80
2021/06/13 10:58:48;;;;;;;1.45;1.00;;;24.10;56.50;;;;;;4994407;28;20073;-80
2021/06/13 11:01:29;;;;;;;1.38;0.98;;;24.20;56.30;;;;;;4995976;28;20145;-80
2021/06/13 11:03:59;;;;;;;1.20;0.80;;;24.30;55.90;;;;;;4994422;28;20053;-80
2021/06/13 11:06:40;;;;;;;0.95;0.80;;;24.10;56.30;;;;;;4979949;28;20034;-79
2021/06/13 11:09:11;;;;;;;1.35;0.90;;;24.00;56.30;;;;;;4978170;28;20041;-79
2021/06/13 11:11:39;;;;;;;1.45;0.90;;;24.00;56.60;;;;;;4979833;28;20046;-80
2021/06/13 11:14:21;;;;;;;1.20;0.80;;;24.00;56.50;;;;;;4979552;28;20050;-79
2021/06/13 11:16:47;;;;;;;0.70;0.70;;;24.00;56.20;;;;;;4979540;28;20070;-80
2021/06/13 11:19:32;;;;;;;1.63;1.00;;;24.20;56.20;;;;;;4979483;28;20159;-81
2021/06/13 11:22:30;;;;;;;1.65;0.90;;;24.30;55.70;;;;;;4978912;28;20392;-81
2021/06/13 11:24:56;;;;;;;1.60;0.93;;;24.40;55.50;;;;;;4980971;28;20133;-80
2021/06/13 11:27:22;;;;;;;1.10;0.82;;;24.40;55.50;;;;;;4979796;28;20038;-81
2021/06/13 11:29:58;;;;;;;1.45;1.05;;;24.50;55.20;;;;;;4979359;28;20037;-80
2021/06/13 11:32:50;;;;;;;1.17;0.75;;;24.40;55.10;;;;;;4979243;28;20092;-80
2021/06/13 11:35:25;;;;;;;0.88;0.70;;;24.40;55.30;;;;;;4978478;28;20104;-80
2021/06/13 11:38:26;;;;;;;2.47;0.93;;;24.40;55.30;;;;;;4977514;28;20049;-79
2021/06/13 11:40:56;;;;;;;1.10;0.77;;;24.50;55.10;;;;;;4994135;28;20500;-79
2021/06/13 11:43:26;;;;;;;0.80;0.75;;;24.40;55.20;;;;;;4979265;28;20046;-80
2021/06/13 11:45:55;;;;;;;1.90;1.00;;;24.20;55.30;;;;;;4975298;28;20042;-79
2021/06/13 11:48:27;;;;;;;1.80;0.83;;;24.10;55.30;;;;;;4993662;28;20142;-79
2021/06/13 11:51:15;;;;;;;1.23;0.95;;;24.10;55.50;;;;;;4979031;28;20038;-79
2021/06/13 11:53:51;;;;;;;1.02;0.80;;;24.20;55.40;;;;;;4978803;28;20046;-79
2021/06/13 11:56:40;;;;;;;1.35;0.77;;;24.10;55.20;;;;;;4978592;28;20123;-80
2021/06/13 11:59:22;;;;;;;1.85;1.00;;;24.30;55.10;;;;;;4995443;28;20050;-79
2021/06/13 12:02:04;;;;;;;1.60;0.88;;;24.30;54.90;;;;;;4993750;28;20050;-79
2021/06/13 12:04:31;;;;;;;1.70;0.90;;;24.10;55.10;;;;;;4978599;28;20053;-78
2021/06/13 12:06:59;;;;;;;1.27;0.90;;;24.10;55.10;;;;;;4994986;28;20048;-79
2021/06/13 12:09:26;;;;;;;1.27;1.00;;;24.00;55.10;;;;;;4978925;28;20068;-79
2021/06/13 12:11:55;;;;;;;1.13;0.73;;;24.00;55.20;;;;;;4978863;28;20033;-79
2021/06/13 12:14:44;;;;;;;0.98;0.80;;;24.00;55.20;;;;;;4978583;28;20522;-80
2021/06/13 12:17:21;;;;;;;1.13;0.70;;;24.00;55.00;;;;;;4975119;28;20553;-79
2021/06/13 12:19:51;;;;;;;2.53;0.90;;;24.10;55.00;;;;;;4977677;28;20037;-79
2021/06/13 12:22:28;;;;;;;2.47;1.00;;;24.20;54.80;;;;;;4994527;28;20038;-80
2021/06/13 12:27:46;;;;;;;0.82;0.80;;;24.20;54.50;;;;;;4997620;28;20107;-79
2021/06/13 12:30:18;;;;;;;0.75;0.60;;;24.10;54.50;;;;;;4992826;28;20125;-78
2021/06/13 12:32:55;;;;;;;1.00;0.80;;;24.00;54.40;;;;;;4975162;28;20046;-79
2021/06/13 12:35:24;;;;;;;0.85;0.80;;;24.00;54.50;;;;;;4978008;28;20566;-79
2021/06/13 12:38:11;;;;;;;1.13;0.80;;;24.00;54.60;;;;;;4978163;28;20096;-79
2021/06/13 12:40:42;;;;;;;0.70;0.70;;;24.00;54.20;;;;;;4977984;28;20141;-80
2021/06/13 12:43:09;;;;;;;1.63;1.02;;;24.00;54.20;;;;;;4994213;28;20112;-79
2021/06/13 12:45:37;;;;;;;1.60;0.80;;;24.00;54.10;;;;;;4994452;28;20523;-79
2021/06/13 12:48:07;;;;;;;2.08;1.27;;;24.00;54.20;;;;;;4978384;28;20492;-79
2021/06/13 12:50:47;;;;;;;1.40;1.00;;;23.90;54.10;;;;;;4994861;28;20034;-79
2021/06/13 12:53:15;;;;;;;1.23;0.90;;;23.90;54.00;;;;;;5008390;28;20045;-79
2021/06/13 12:55:47;;;;;;;1.48;0.90;;;23.90;53.90;;;;;;4978385;28;20581;-80
2021/06/13 12:58:16;;;;;;;1.10;1.00;;;23.80;53.90;;;;;;5012497;28;20149;-79
2021/06/13 13:00:42;;;;;;;1.00;0.90;;;23.80;54.00;;;;;;5010971;28;20073;-79
2021/06/13 13:03:11;;;;;;;1.10;0.90;;;23.70;53.80;;;;;;5011044;28;20115;-79
2021/06/13 13:05:40;;;;;;;1.13;0.85;;;23.80;53.70;;;;;;5010694;28;20049;-79
2021/06/13 13:08:20;;;;;;;1.73;0.80;;;23.80;53.60;;;;;;5011595;28;20045;-79
2021/06/13 13:11:00;;;;;;;1.42;0.80;;;23.90;53.40;;;;;;5010431;28;20026;-79
2021/06/13 13:13:36;;;;;;;1.00;0.70;;;23.70;53.40;;;;;;4993920;28;20118;-78
2021/06/13 13:16:04;;;;;;;1.20;0.90;;;23.80;53.40;;;;;;4993009;28;20050;-78
2021/06/13 13:18:39;;;;;;;1.02;0.80;;;23.70;53.40;;;;;;4992021;28;20137;-79